Latest Weather Observations for Hughenden

IDQ60801

Issued at 9:02 am EST Sunday 19 November 2017 (issued every 30 minutes, with the page automatically refreshed every 10 minutes)

About weather observations | Map of weather stations | Latest weather observations for QLD | Other Formats
Station Details ID: 030022 Name: HUGHENDEN AIRPORT Lat: -20.82 Lon: 144.23 Height: 316.4 m
Data from the previous 72 hours. | See also: Recent months at Hughenden
Date/Time
EST
Temp
°C
App
Temp
°C
Dew
Point
°C
Rel
Hum
%
Delta-T
°C
Wind Press
QNH
hPa
Press
MSL
hPa
Rain since
9am
mm
Dir  Spd
km/h
Gust
km/h
Spd
kts
Gust
kts
19/09:00am 29.4 26.7 12.8 36 9.9 N 19 28 10 15 1011.4 1009.1 0.0
19/08:30am 28.4 26.8 15.0 44 8.3 NNE 17 24 9 13 1011.4 1009.1 0.0
19/08:00am 26.7 24.2 15.1 49 7.1 NNE 22 30 12 16 1011.3 1009.0 0.0
19/07:30am 25.1 23.0 15.1 53 6.1 NE 20 28 11 15 1011.1 1008.8 0.0
19/07:00am 24.1 22.7 15.6 59 5.2 NE 17 22 9 12 1010.4 1008.1 0.0
19/06:30am 22.8 22.6 15.6 64 4.4 NE 11 17 6 9 1010.2 1007.9 0.0
19/06:00am 21.8 21.2 15.6 68 3.8 NE 13 17 7 9 1009.5 1007.3 0.0
19/05:30am 22.2 20.6 16.0 68 3.8 NE 19 26 10 14 1009.0 1006.8 0.0
19/05:00am 22.7 21.1 16.0 66 4.1 NNE 19 24 10 13 1009.0 1006.8 0.0
19/04:30am 22.4 21.9 16.0 67 3.9 NNE 13 19 7 10 1009.1 1006.9 0.0
19/04:00am 21.5 21.8 14.4 64 4.2 ENE 6 7 3 4 1008.9 1006.7 0.0
19/03:30am 22.1 21.8 14.5 62 4.5 ENE 9 11 5 6 1008.6 1006.3 0.0
19/03:00am 23.4 23.2 14.7 58 5.2 NE 9 11 5 6 1008.6 1006.3 0.0
19/02:30am 24.6 23.2 15.5 57 5.6 NE 17 26 9 14 1008.2 1005.9 0.0
19/02:00am 25.3 22.6 15.6 55 6.0 NE 24 30 13 16 1008.4 1006.1 0.0
19/01:30am 25.8 24.4 15.5 53 6.3 NE 17 24 9 13 1008.7 1006.4 0.0
19/01:00am 26.1 24.7 15.5 52 6.5 NE 17 24 9 13 1009.0 1006.8 0.0
19/12:30am 25.9 24.5 14.4 49 6.9 NE 15 20 8 11 1009.0 1006.8 0.0
19/12:00am 25.6 24.2 12.1 43 7.9 NE 11 15 6 8 1009.0 1006.8 0.0
 
Date/Time
EST
Temp
°C
App
Temp
°C
Dew
Point
°C
Rel
Hum
%
Delta-T
°C
Wind Press
QNH
hPa
Press
MSL
hPa
Rain since
9am
mm
Dir  Spd
km/h
Gust
km/h
Spd
kts
Gust
kts
18/11:30pm 26.2 24.3 10.4 37 9.0 NE 11 20 6 11 1009.2 1007.0 0.0
18/11:00pm 23.8 20.2 0.8 22 10.8 ESE 9 13 5 7 1008.8 1006.5 0.0
18/10:30pm 24.8 20.9 1.0 21 11.3 S 11 13 6 7 1008.9 1006.7 0.0
18/10:00pm 25.0 20.7 1.2 21 11.4 SSE 13 17 7 9 1008.7 1006.4 0.0
18/09:30pm 25.2 21.4 2.0 22 11.3 SE 11 11 6 6 1008.4 1006.1 0.0
18/09:00pm 27.2 23.2 0.8 18 12.8 S 11 11 6 6 1008.3 1006.0 0.0
18/08:30pm 27.7 23.9 2.0 19 12.7 S 11 13 6 7 1007.9 1005.6 0.0
18/08:00pm 29.1 25.5 3.1 19 13.2 SSW 11 15 6 8 1007.8 1005.5 0.0
18/07:30pm 30.5 27.2 2.7 17 14.2 SSW 9 13 5 7 1007.6 1005.3 0.0
18/07:00pm 32.1 28.1 0.2 13 15.8 SSW 11 13 6 7 1007.4 1005.1 0.0
18/06:30pm 34.1 29.8 0.7 12 16.8 SW 13 17 7 9 1007.4 1005.1 0.0
18/06:00pm 35.3 30.7 1.6 12 17.4 SW 15 22 8 12 1007.2 1004.9 0.0
18/05:30pm 35.8 31.1 3.1 13 17.3 SW 17 28 9 15 1007.1 1004.8 0.0
18/05:00pm 36.1 30.7 2.2 12 17.7 SW 20 30 11 16 1007.0 1004.7 0.0
18/04:30pm 36.5 33.0 3.7 13 17.6 W 11 22 6 12 1007.0 1004.7 0.0
18/04:00pm 36.2 32.5 4.5 14 17.2 SW 13 20 7 11 1007.1 1004.8 0.0
18/03:30pm 34.9 32.0 4.4 15 16.4 WNW 9 19 5 10 1007.4 1005.1 0.0
18/03:00pm 35.9 31.2 3.2 13 17.4 SW 17 32 9 17 1007.7 1005.4 0.0
18/02:30pm 36.8 32.2 3.9 13 17.7 SW 17 26 9 14 1008.1 1005.8 0.0
18/02:00pm 35.9 30.8 4.2 14 17.1 W 20 37 11 20 1008.8 1006.5 0.0
18/01:30pm 35.0 30.9 4.5 15 16.4 SW 15 28 8 15 1009.2 1007.0 0.0
18/01:00pm 34.7 30.6 6.1 17 15.8 SSW 17 28 9 15 1009.5 1007.3 0.0
18/12:30pm 34.5 32.0 11.0 24 13.9 NNW 15 24 8 13 1009.9 1007.7 0.0
18/12:00pm 33.2 32.2 11.1 26 13.1 SW 7 19 4 10 1010.6 1008.3 0.0
18/11:30am 33.4 32.4 12.4 28 12.7 NE 9 13 5 7 1011.1 1008.8 0.0
18/11:00am 31.9 31.5 11.1 28 12.2 NW 4 13 2 7 1011.4 1009.1 0.0
18/10:30am 31.2 30.7 12.5 31 11.2 SSW 7 13 4 7 1011.6 1009.3 0.0
18/10:00am 30.2 29.8 13.0 34 10.3 WNW 7 13 4 7 1011.9 1009.7 0.0
18/09:30am 29.5 29.3 13.7 38 9.6 WNW 7 15 4 8 1012.2 1010.0 0.0
18/09:00am 28.1 27.5 13.6 41 8.7 NNE 9 15 5 8 1012.2 1010.0 0.0
18/08:30am 27.4 27.2 13.7 43 8.2 NE 7 11 4 6 1012.3 1010.1 0.0
18/08:00am 26.2 25.9 14.3 48 7.2 NNE 9 15 5 8 1012.3 1010.1 0.0
18/07:30am 24.8 24.0 14.0 51 6.5 NE 11 15 6 8 1012.3 1010.1 0.0
18/07:00am 23.9 22.8 14.3 55 5.7 NE 13 17 7 9 1012.1 1009.9 0.0
18/06:30am 22.8 22.6 14.6 60 4.9 NE 9 15 5 8 1011.9 1009.7 0.0
18/06:00am 21.7 21.5 14.8 65 4.1 NE 9 13 5 7 1011.3 1009.0 0.0
18/05:30am 21.3 21.3 15.2 68 3.7 NE 9 11 5 6 1011.0 1008.7 0.0
18/05:00am 21.4 22.0 15.3 68 3.7 ENE 6 9 3 5 1010.8 1008.5 0.0
18/04:30am 21.8 21.2 15.6 68 3.8 NE 13 15 7 8 1010.5 1008.2 0.0
18/04:00am 22.2 22.4 15.8 67 3.9 NE 9 15 5 8 1010.4 1008.1 0.0
18/03:30am 22.6 22.5 15.9 66 4.1 NE 11 15 6 8 1010.3 1008.0 0.0
18/03:00am 22.9 22.5 16.2 66 4.1 NE 13 19 7 10 1010.5 1008.2 0.0
18/02:30am 23.1 22.1 16.6 67 4.0 ENE 17 20 9 11 1010.7 1008.4 0.0
18/02:00am 23.5 23.0 16.8 66 4.2 ENE 15 20 8 11 1010.9 1008.6 0.0
18/01:30am 23.6 22.7 16.9 66 4.2 E 17 22 9 12 1011.1 1008.8 0.0
18/01:00am 23.1 22.6 16.9 68 3.9 E 15 20 8 11 1011.6 1009.3 0.0
18/12:30am 23.0 22.5 16.8 68 3.8 E 15 19 8 10 1011.9 1009.7 0.0
18/12:00am 23.8 23.2 16.6 64 4.5 E 15 20 8 11 1012.1 1009.9 0.0
 
Date/Time
EST
Temp
°C
App
Temp
°C
Dew
Point
°C
Rel
Hum
%
Delta-T
°C
Wind Press
QNH
hPa
Press
MSL
hPa
Rain since
9am
mm
Dir  Spd
km/h
Gust
km/h
Spd
kts
Gust
kts
17/11:30pm 23.8 23.4 16.3 63 4.6 ENE 13 19 7 10 1012.2 1010.0 0.0
17/11:00pm 24.1 22.6 16.4 62 4.8 NE 19 30 10 16 1012.2 1010.0 0.0
17/10:30pm 24.1 23.2 16.9 64 4.5 NE 17 28 9 15 1012.2 1010.0 0.0
17/10:00pm 24.3 22.8 16.8 63 4.7 NE 20 28 11 15 1012.1 1009.9 0.0
17/09:30pm 24.4 23.6 17.1 63 4.6 ENE 17 22 9 12 1012.0 1009.8 0.0
17/09:00pm 24.3 22.6 17.3 65 4.4 ENE 22 30 12 16 1012.0 1009.8 0.0
17/08:30pm 24.7 23.1 17.4 64 4.6 ENE 22 33 12 18 1012.0 1009.8 0.0
17/08:00pm 25.8 24.4 16.6 56 5.8 NE 19 24 10 13 1011.7 1009.4 0.0
17/07:30pm 26.1 26.0 16.9 57 5.8 NE 13 19 7 10 1011.5 1009.2 0.0
17/07:00pm 27.1 25.0 16.1 51 6.9 NE 22 32 12 17 1011.1 1008.8 0.0
17/06:30pm 27.2 26.0 16.2 51 6.9 SE 17 22 9 12 1010.2 1007.9 0.0
17/06:00pm 29.4 26.1 14.0 39 9.4 ESE 24 35 13 19 1009.8 1007.6 0.0
17/05:30pm 29.9 27.2 12.8 35 10.2 N 19 24 10 13 1009.1 1006.9 0.0
17/05:00pm 30.6 25.1 12.5 33 10.8 NNW 33 46 18 25 1008.6 1006.3 0.0
17/04:56pm 30.5 25.0 12.4 33 10.8 NNW 33 46 18 25 1008.6 1006.3 0.0
17/04:30pm 32.8 29.0 11.3 27 12.7 NNW 22 28 12 15 1008.3 1006.0 0.0
17/04:10pm 32.9 29.3 12.0 28 12.5 NNW 22 33 12 18 1008.3 1006.0 0.0
17/04:00pm 33.8 33.4 11.0 25 13.5 NW 4 9 2 5 1008.5 1006.2 0.0
17/03:30pm 34.3 33.4 11.4 25 13.7 WNW 7 11 4 6 1008.8 1006.5 0.0
17/03:00pm 33.4 33.2 11.9 27 12.9 NNE 4 9 2 5 1009.3 1007.1 0.0
17/02:30pm 33.6 32.7 11.5 26 13.2 N 7 17 4 9 1009.8 1007.6 0.0
17/02:00pm 33.7 32.8 12.7 28 12.8 N 9 17 5 9 1010.4 1008.1 0.0
17/01:30pm 33.3 31.9 12.3 28 12.6 E 11 20 6 11 1010.8 1008.5 0.0
17/01:00pm 33.2 32.9 12.8 29 12.4 NW 6 15 3 8 1011.4 1009.1 0.0
17/12:30pm 32.7 31.9 12.9 30 12.0 WSW 9 15 5 8 1011.8 1009.6 0.0
17/12:00pm 32.0 30.9 13.2 31 11.4 NNW 11 20 6 11 1012.5 1010.3 0.0
17/11:30am 31.0 30.7 12.8 32 10.9 SW 6 11 3 6 1012.9 1010.7 0.0
17/11:00am 30.0 29.9 14.9 39 9.3 NE 9 19 5 10 1013.3 1011.1 0.0
17/10:30am 29.2 28.8 15.3 42 8.6 NE 11 17 6 9 1013.5 1011.2 0.0
17/10:00am 28.5 27.7 15.1 44 8.3 NNE 13 17 7 9 1013.7 1011.4 0.0
17/09:30am 28.0 27.0 15.6 46 7.7 NE 15 20 8 11 1013.6 1011.3 0.0
17/09:00am 27.3 26.3 15.7 49 7.2 NE 15 22 8 12 1013.6 1011.3 1.4
17/08:30am 26.5 24.9 16.1 52 6.5 NE 19 28 10 15 1013.1 1010.9 1.4
17/08:00am 25.3 23.1 15.9 56 5.8 ENE 22 30 12 16 1013.1 1010.9 1.4
17/07:30am 24.6 22.5 16.1 59 5.2 NE 22 28 12 15 1013.1 1010.9 1.4
17/07:00am 24.0 23.6 16.3 62 4.8 NE 13 19 7 10 1013.0 1010.8 1.4
17/06:30am 23.0 22.7 16.5 67 4.0 ENE 13 17 7 9 1012.7 1010.5 1.4
17/06:00am 22.1 22.9 16.4 70 3.5 ENE 7 11 4 6 1012.5 1010.3 1.4
17/05:30am 22.0 22.4 16.3 70 3.5 ENE 9 13 5 7 1012.0 1009.8 1.4
17/05:00am 22.2 21.7 16.0 68 3.8 E 13 15 7 8 1011.7 1009.4 1.4
17/04:30am 22.3 22.2 16.1 68 3.8 ENE 11 13 6 7 1011.3 1009.0 1.4
17/04:00am 22.8 23.1 16.1 66 4.1 ENE 9 17 5 9 1011.2 1008.9 1.4
17/03:30am 23.1 23.1 16.2 65 4.2 E 11 15 6 8 1011.1 1008.8 1.4
17/03:00am 24.3 24.0 15.5 58 5.4 NNE 11 17 6 9 1010.9 1008.6 1.4
17/02:30am 24.7 23.6 15.3 56 5.7 NE 15 20 8 11 1011.0 1008.7 1.4
17/02:00am 24.9 24.2 15.5 56 5.8 NE 13 19 7 10 1011.2 1008.9 1.4
17/01:30am 25.0 25.0 16.2 58 5.5 NE 11 17 6 9 1011.2 1008.9 1.4
17/01:00am 25.4 24.9 16.0 56 5.8 NNE 13 17 7 9 1011.2 1008.9 1.4
17/12:30am 24.9 24.8 16.9 61 5.0 NNE 13 15 7 8 1011.2 1008.9 1.4
17/12:00am 25.5 25.2 16.4 57 5.7 NE 13 17 7 9 1011.7 1009.4 1.4
 
Date/Time
EST
Temp
°C
App
Temp
°C
Dew
Point
°C
Rel
Hum
%
Delta-T
°C
Wind Press
QNH
hPa
Press
MSL
hPa
Rain since
9am
mm
Dir  Spd
km/h
Gust
km/h
Spd
kts
Gust
kts
16/11:30pm 25.4 26.0 17.6 62 4.9 NE 11 13 6 7 1011.7 1009.4 1.4
16/11:00pm 24.9 26.4 18.1 66 4.3 E 7 9 4 5 1011.6 1009.3 1.4
16/10:30pm 26.3 26.7 16.3 54 6.2 ENE 9 13 5 7 1011.5 1009.2 1.4
16/10:00pm 25.6 25.4 16.7 58 5.6 SSE 13 19 7 10 1011.5 1009.2 1.4
16/09:30pm 26.7 26.1 15.7 51 6.8 N 13 19 7 10 1011.4 1009.1 1.4
16/09:00pm 27.2 26.2 16.5 52 6.7 ENE 17 22 9 12 1011.2 1008.9 1.4
16/08:30pm 26.0 21.2 14.1 47 7.2 SSW 32 57 17 31 1010.7 1008.4 0.2
16/08:28pm 25.8 21.9 13.3 46 7.4 SSW 26 50 14 27 1010.5 1008.2 0.0
16/08:26pm 27.8 24.9 13.0 40 8.8 SSW 20 44 11 24 1010.4 1008.1 0.0
16/08:00pm 32.0 29.6 10.1 26 12.7 NE 13 19 7 10 1009.7 1007.5 0.0
16/07:30pm 32.3 30.2 9.8 25 13.0 ESE 11 13 6 7 1009.3 1007.1 0.0
16/07:00pm 32.4 30.9 10.4 26 12.8 E 9 9 5 5 1009.1 1006.9 0.0
16/06:30pm 33.0 30.9 9.7 24 13.5 ESE 11 15 6 8 1008.9 1006.7 0.0
16/06:00pm 33.8 30.4 9.1 22 14.2 NE 17 24 9 13 1008.8 1006.5 0.0
16/05:30pm 34.1 32.4 10.0 23 14.1 ENE 9 20 5 11 1008.6 1006.3 0.0
16/05:00pm 34.2 32.6 10.1 23 14.1 E 9 15 5 8 1008.4 1006.1 0.0
16/04:30pm 34.1 30.5 10.0 23 14.1 ESE 19 28 10 15 1008.3 1006.0 0.0
16/04:00pm 35.1 33.9 10.2 22 14.7 SSW 7 13 4 7 1008.3 1006.0 0.0
16/03:30pm 34.8 33.1 9.9 22 14.6 ESE 9 17 5 9 1008.5 1006.2 0.0
16/03:00pm 34.6 33.1 10.4 23 14.3 NNW 9 20 5 11 1008.9 1006.7 0.0
16/02:30pm 35.0 32.8 10.8 23 14.3 SE 13 24 7 13 1009.3 1007.1 0.0
16/02:00pm 34.2 33.1 10.7 24 13.9 N 7 19 4 10 1009.7 1007.5 0.0
16/01:30pm 33.3 31.4 11.8 27 12.9 NE 13 20 7 11 1010.4 1008.1 0.0
16/01:00pm 32.8 30.9 11.9 28 12.5 E 13 24 7 13 1010.9 1008.6 0.0
16/12:30pm 32.1 31.8 13.3 31 11.4 NNE 7 15 4 8 1011.4 1009.1 0.0
16/12:00pm 31.8 29.8 14.0 34 10.9 NE 17 24 9 13 1011.9 1009.7 0.0
16/11:30am 30.4 28.9 14.1 37 10.0 NE 15 20 8 11 1012.4 1010.2 0.0
16/11:00am 29.9 29.2 16.3 43 8.6 ENE 15 24 8 13 1012.8 1010.6 0.0
16/10:30am 29.5 29.4 17.0 47 8.0 NE 13 20 7 11 1013.2 1011.0 0.0
16/10:00am 27.9 27.2 16.5 50 7.2 NE 15 24 8 13 1013.7 1011.4 0.0
16/09:30am 26.7 25.2 16.3 53 6.5 ENE 19 26 10 14 1014.0 1011.7 0.0

Other Formats:

Comma delimited format used in spreadsheet applications
http://www.bom.gov.au/fwo/IDQ60801/IDQ60801.94343.axf

JavaScript Object Notation format (JSON) in row-major order
http://www.bom.gov.au/fwo/IDQ60801/IDQ60801.94343.json